sensor_id;sensor_type;location;lat;lon;timestamp;P1;durP1;ratioP1;P2;durP2;ratioP2
51764;SDS011;37835;53.256;6.456;2023-04-24T00:02:22;5.60;;;5.10;;
51764;SDS011;37835;53.256;6.456;2023-04-24T00:04:49;4.82;;;4.43;;
51764;SDS011;37835;53.256;6.456;2023-04-24T00:07:14;6.00;;;5.10;;
51764;SDS011;37835;53.256;6.456;2023-04-24T00:09:41;5.88;;;5.13;;
51764;SDS011;37835;53.256;6.456;2023-04-24T00:12:08;5.05;;;4.65;;
51764;SDS011;37835;53.256;6.456;2023-04-24T00:14:35;5.32;;;4.80;;
51764;SDS011;37835;53.256;6.456;2023-04-24T00:17:01;4.97;;;4.47;;
51764;SDS011;37835;53.256;6.456;2023-04-24T00:19:27;5.00;;;4.60;;
51764;SDS011;37835;53.256;6.456;2023-04-24T00:21:54;5.38;;;4.40;;
51764;SDS011;37835;53.256;6.456;2023-04-24T00:24:20;4.90;;;4.40;;
51764;SDS011;37835;53.256;6.456;2023-04-24T00:26:46;4.80;;;4.40;;
51764;SDS011;37835;53.256;6.456;2023-04-24T00:29:11;5.20;;;4.70;;
51764;SDS011;37835;53.256;6.456;2023-04-24T00:31:37;5.05;;;4.65;;
51764;SDS011;37835;53.256;6.456;2023-04-24T00:34:03;5.20;;;4.80;;
51764;SDS011;37835;53.256;6.456;2023-04-24T00:36:29;5.00;;;4.60;;
51764;SDS011;37835;53.256;6.456;2023-04-24T00:38:56;4.82;;;4.43;;
51764;SDS011;37835;53.256;6.456;2023-04-24T00:41:22;5.30;;;4.72;;
51764;SDS011;37835;53.256;6.456;2023-04-24T00:43:48;4.75;;;4.30;;
51764;SDS011;37835;53.256;6.456;2023-04-24T00:46:14;4.53;;;4.07;;
51764;SDS011;37835;53.256;6.456;2023-04-24T00:48:41;4.88;;;4.40;;
51764;SDS011;37835;53.256;6.456;2023-04-24T00:51:06;5.05;;;4.30;;
51764;SDS011;37835;53.256;6.456;2023-04-24T00:53:32;4.63;;;3.85;;
51764;SDS011;37835;53.256;6.456;2023-04-24T00:55:58;4.00;;;3.60;;
51764;SDS011;37835;53.256;6.456;2023-04-24T00:58:24;4.28;;;3.58;;
51764;SDS011;37835;53.256;6.456;2023-04-24T01:00:51;3.25;;;2.97;;
51764;SDS011;37835;53.256;6.456;2023-04-24T01:03:19;2.25;;;2.15;;
51764;SDS011;37835;53.256;6.456;2023-04-24T01:05:46;2.83;;;2.15;;
51764;SDS011;37835;53.256;6.456;2023-04-24T01:08:13;2.72;;;1.90;;
51764;SDS011;37835;53.256;6.456;2023-04-24T01:10:39;3.30;;;1.80;;
51764;SDS011;37835;53.256;6.456;2023-04-24T01:13:07;2.08;;;1.88;;
51764;SDS011;37835;53.256;6.456;2023-04-24T01:15:33;1.70;;;1.60;;
51764;SDS011;37835;53.256;6.456;2023-04-24T01:17:59;2.10;;;1.90;;
51764;SDS011;37835;53.256;6.456;2023-04-24T01:20:25;3.88;;;1.70;;
51764;SDS011;37835;53.256;6.456;2023-04-24T01:22:51;1.67;;;1.58;;
51764;SDS011;37835;53.256;6.456;2023-04-24T01:25:18;2.10;;;1.42;;
51764;SDS011;37835;53.256;6.456;2023-04-24T01:27:43;1.33;;;1.23;;
51764;SDS011;37835;53.256;6.456;2023-04-24T01:30:09;1.55;;;1.45;;
51764;SDS011;37835;53.256;6.456;2023-04-24T01:32:36;1.10;;;1.10;;
51764;SDS011;37835;53.256;6.456;2023-04-24T01:35:02;1.40;;;1.30;;
51764;SDS011;37835;53.256;6.456;2023-04-24T01:37:28;1.23;;;1.23;;
51764;SDS011;37835;53.256;6.456;2023-04-24T01:39:54;1.52;;;1.42;;
51764;SDS011;37835;53.256;6.456;2023-04-24T01:42:20;1.20;;;1.10;;
51764;SDS011;37835;53.256;6.456;2023-04-24T01:44:46;2.45;;;1.30;;
51764;SDS011;37835;53.256;6.456;2023-04-24T01:47:12;1.77;;;1.30;;
51764;SDS011;37835;53.256;6.456;2023-04-24T01:49:38;2.35;;;1.52;;
51764;SDS011;37835;53.256;6.456;2023-04-24T01:52:04;1.20;;;1.20;;
51764;SDS011;37835;53.256;6.456;2023-04-24T01:54:31;1.50;;;1.40;;
51764;SDS011;37835;53.256;6.456;2023-04-24T01:56:57;1.58;;;1.48;;
51764;SDS011;37835;53.256;6.456;2023-04-24T01:59:22;1.65;;;1.55;;
51764;SDS011;37835;53.256;6.456;2023-04-24T02:01:50;1.52;;;1.38;;
51764;SDS011;37835;53.256;6.456;2023-04-24T02:04:15;1.50;;;1.40;;
51764;SDS011;37835;53.256;6.456;2023-04-24T02:06:41;1.65;;;1.55;;
51764;SDS011;37835;53.256;6.456;2023-04-24T02:09:07;1.50;;;1.50;;
51764;SDS011;37835;53.256;6.456;2023-04-24T02:11:32;1.83;;;1.80;;
51764;SDS011;37835;53.256;6.456;2023-04-24T02:13:58;1.88;;;1.75;;
51764;SDS011;37835;53.256;6.456;2023-04-24T02:16:24;2.00;;;1.90;;
51764;SDS011;37835;53.256;6.456;2023-04-24T02:18:49;3.35;;;2.30;;
51764;SDS011;37835;53.256;6.456;2023-04-24T02:21:15;6.47;;;2.28;;
51764;SDS011;37835;53.256;6.456;2023-04-24T02:23:41;2.42;;;2.33;;
51764;SDS011;37835;53.256;6.456;2023-04-24T02:26:06;2.33;;;2.15;;
51764;SDS011;37835;53.256;6.456;2023-04-24T02:28:32;2.70;;;2.50;;
51764;SDS011;37835;53.256;6.456;2023-04-24T02:30:58;3.00;;;2.80;;
51764;SDS011;37835;53.256;6.456;2023-04-24T02:33:23;3.08;;;2.88;;
51764;SDS011;37835;53.256;6.456;2023-04-24T02:35:49;3.03;;;2.85;;
51764;SDS011;37835;53.256;6.456;2023-04-24T02:38:14;3.58;;;3.22;;
51764;SDS011;37835;53.256;6.456;2023-04-24T02:40:40;3.40;;;3.20;;
51764;SDS011;37835;53.256;6.456;2023-04-24T02:43:05;3.92;;;3.60;;
51764;SDS011;37835;53.256;6.456;2023-04-24T02:45:31;4.50;;;4.20;;
51764;SDS011;37835;53.256;6.456;2023-04-24T02:47:59;4.38;;;4.13;;
51764;SDS011;37835;53.256;6.456;2023-04-24T02:50:25;4.53;;;4.22;;
51764;SDS011;37835;53.256;6.456;2023-04-24T02:52:50;5.15;;;4.75;;
51764;SDS011;37835;53.256;6.456;2023-04-24T02:55:16;4.90;;;4.50;;
51764;SDS011;37835;53.256;6.456;2023-04-24T02:57:41;5.68;;;5.28;;
51764;SDS011;37835;53.256;6.456;2023-04-24T03:00:07;6.03;;;5.30;;
51764;SDS011;37835;53.256;6.456;2023-04-24T03:02:34;5.85;;;5.45;;
51764;SDS011;37835;53.256;6.456;2023-04-24T03:04:59;5.88;;;5.47;;
51764;SDS011;37835;53.256;6.456;2023-04-24T03:07:25;6.57;;;6.07;;
51764;SDS011;37835;53.256;6.456;2023-04-24T03:09:50;6.65;;;6.07;;
51764;SDS011;37835;53.256;6.456;2023-04-24T03:12:16;6.57;;;6.07;;
51764;SDS011;37835;53.256;6.456;2023-04-24T03:14:43;7.07;;;6.47;;
51764;SDS011;37835;53.256;6.456;2023-04-24T03:17:08;6.93;;;6.38;;
51764;SDS011;37835;53.256;6.456;2023-04-24T03:19:34;7.63;;;7.03;;
51764;SDS011;37835;53.256;6.456;2023-04-24T03:22:01;8.30;;;7.53;;
51764;SDS011;37835;53.256;6.456;2023-04-24T03:24:27;7.85;;;7.25;;
51764;SDS011;37835;53.256;6.456;2023-04-24T03:26:53;8.93;;;8.02;;
51764;SDS011;37835;53.256;6.456;2023-04-24T03:29:19;9.02;;;8.13;;
51764;SDS011;37835;53.256;6.456;2023-04-24T03:31:44;8.57;;;7.72;;
51764;SDS011;37835;53.256;6.456;2023-04-24T03:34:10;8.73;;;8.02;;
51764;SDS011;37835;53.256;6.456;2023-04-24T03:36:36;9.40;;;8.50;;
51764;SDS011;37835;53.256;6.456;2023-04-24T03:39:01;9.43;;;8.50;;
51764;SDS011;37835;53.256;6.456;2023-04-24T03:41:27;9.55;;;8.65;;
51764;SDS011;37835;53.256;6.456;2023-04-24T03:43:52;9.98;;;9.07;;
51764;SDS011;37835;53.256;6.456;2023-04-24T03:46:18;9.90;;;9.07;;
51764;SDS011;37835;53.256;6.456;2023-04-24T03:48:43;10.70;;;9.77;;
51764;SDS011;37835;53.256;6.456;2023-04-24T03:51:09;10.80;;;9.60;;
51764;SDS011;37835;53.256;6.456;2023-04-24T03:53:35;10.88;;;9.90;;
51764;SDS011;37835;53.256;6.456;2023-04-24T03:56:00;14.32;;;10.70;;
51764;SDS011;37835;53.256;6.456;2023-04-24T03:58:26;11.25;;;10.20;;
51764;SDS011;37835;53.256;6.456;2023-04-24T04:00:51;12.45;;;11.27;;
51764;SDS011;37835;53.256;6.456;2023-04-24T04:03:17;12.13;;;10.88;;
51764;SDS011;37835;53.256;6.456;2023-04-24T04:05:42;13.43;;;11.57;;
51764;SDS011;37835;53.256;6.456;2023-04-24T04:08:08;13.18;;;11.88;;
51764;SDS011;37835;53.256;6.456;2023-04-24T04:10:33;13.20;;;11.85;;
51764;SDS011;37835;53.256;6.456;2023-04-24T04:12:59;14.98;;;12.85;;
51764;SDS011;37835;53.256;6.456;2023-04-24T04:15:25;13.40;;;12.05;;
51764;SDS011;37835;53.256;6.456;2023-04-24T04:17:50;14.35;;;12.95;;
51764;SDS011;37835;53.256;6.456;2023-04-24T04:20:16;13.77;;;12.48;;
51764;SDS011;37835;53.256;6.456;2023-04-24T04:22:42;14.60;;;13.20;;
51764;SDS011;37835;53.256;6.456;2023-04-24T04:25:07;15.45;;;13.85;;
51764;SDS011;37835;53.256;6.456;2023-04-24T04:27:33;14.75;;;13.25;;
51764;SDS011;37835;53.256;6.456;2023-04-24T04:29:59;15.20;;;13.68;;
51764;SDS011;37835;53.256;6.456;2023-04-24T04:32:33;15.32;;;13.73;;
51764;SDS011;37835;53.256;6.456;2023-04-24T04:34:59;15.10;;;13.60;;
51764;SDS011;37835;53.256;6.456;2023-04-24T04:37:32;11.35;;;10.27;;
51764;SDS011;37835;53.256;6.456;2023-04-24T04:39:58;10.93;;;8.85;;
51764;SDS011;37835;53.256;6.456;2023-04-24T04:42:31;9.07;;;6.47;;
51764;SDS011;37835;53.256;6.456;2023-04-24T04:44:58;5.97;;;5.20;;
51764;SDS011;37835;53.256;6.456;2023-04-24T04:47:24;5.25;;;4.75;;
51764;SDS011;37835;53.256;6.456;2023-04-24T04:49:51;6.43;;;5.05;;
51764;SDS011;37835;53.256;6.456;2023-04-24T04:52:17;5.90;;;4.57;;
51764;SDS011;37835;53.256;6.456;2023-04-24T04:54:43;5.78;;;4.70;;
51764;SDS011;37835;53.256;6.456;2023-04-24T04:57:09;4.13;;;3.75;;
51764;SDS011;37835;53.256;6.456;2023-04-24T04:59:36;7.03;;;4.00;;
51764;SDS011;37835;53.256;6.456;2023-04-24T05:02:02;7.63;;;4.38;;
51764;SDS011;37835;53.256;6.456;2023-04-24T05:04:27;5.80;;;4.40;;
51764;SDS011;37835;53.256;6.456;2023-04-24T05:06:53;5.93;;;5.32;;
51764;SDS011;37835;53.256;6.456;2023-04-24T05:09:19;4.95;;;4.45;;
51764;SDS011;37835;53.256;6.456;2023-04-24T05:11:44;5.13;;;4.63;;
51764;SDS011;37835;53.256;6.456;2023-04-24T05:14:10;4.93;;;4.45;;
51764;SDS011;37835;53.256;6.456;2023-04-24T05:16:37;6.10;;;5.50;;
51764;SDS011;37835;53.256;6.456;2023-04-24T05:19:03;6.85;;;5.88;;
51764;SDS011;37835;53.256;6.456;2023-04-24T05:21:28;7.60;;;6.80;;
51764;SDS011;37835;53.256;6.456;2023-04-24T05:23:54;7.38;;;6.68;;
51764;SDS011;37835;53.256;6.456;2023-04-24T05:26:20;8.40;;;6.72;;
51764;SDS011;37835;53.256;6.456;2023-04-24T05:28:45;7.70;;;5.72;;
51764;SDS011;37835;53.256;6.456;2023-04-24T05:31:11;7.05;;;4.95;;
51764;SDS011;37835;53.256;6.456;2023-04-24T05:33:37;6.22;;;4.70;;
51764;SDS011;37835;53.256;6.456;2023-04-24T05:36:03;4.50;;;4.10;;
51764;SDS011;37835;53.256;6.456;2023-04-24T05:38:30;4.60;;;3.97;;
51764;SDS011;37835;53.256;6.456;2023-04-24T05:40:56;4.32;;;3.75;;
51764;SDS011;37835;53.256;6.456;2023-04-24T05:43:21;4.43;;;4.03;;
51764;SDS011;37835;53.256;6.456;2023-04-24T05:45:47;4.85;;;4.45;;
51764;SDS011;37835;53.256;6.456;2023-04-24T05:48:12;8.55;;;4.68;;
51764;SDS011;37835;53.256;6.456;2023-04-24T05:50:38;5.50;;;4.60;;
51764;SDS011;37835;53.256;6.456;2023-04-24T05:53:04;5.05;;;4.43;;
51764;SDS011;37835;53.256;6.456;2023-04-24T05:55:31;8.90;;;4.68;;
51764;SDS011;37835;53.256;6.456;2023-04-24T05:57:57;5.88;;;4.45;;
51764;SDS011;37835;53.256;6.456;2023-04-24T06:00:23;5.90;;;4.50;;
51764;SDS011;37835;53.256;6.456;2023-04-24T06:02:50;6.25;;;4.47;;
51764;SDS011;37835;53.256;6.456;2023-04-24T06:05:16;6.50;;;4.97;;
51764;SDS011;37835;53.256;6.456;2023-04-24T06:07:42;7.35;;;5.35;;
51764;SDS011;37835;53.256;6.456;2023-04-24T06:10:08;8.45;;;6.10;;
51764;SDS011;37835;53.256;6.456;2023-04-24T06:12:34;6.20;;;5.63;;
51764;SDS011;37835;53.256;6.456;2023-04-24T06:15:00;11.10;;;6.82;;
51764;SDS011;37835;53.256;6.456;2023-04-24T06:17:26;7.57;;;6.78;;
51764;SDS011;37835;53.256;6.456;2023-04-24T06:19:51;8.20;;;7.40;;
51764;SDS011;37835;53.256;6.456;2023-04-24T06:22:17;12.55;;;7.65;;
51764;SDS011;37835;53.256;6.456;2023-04-24T06:24:42;12.43;;;7.50;;
51764;SDS011;37835;53.256;6.456;2023-04-24T06:27:08;9.50;;;7.22;;
51764;SDS011;37835;53.256;6.456;2023-04-24T06:29:34;9.60;;;7.78;;
51764;SDS011;37835;53.256;6.456;2023-04-24T06:32:00;9.07;;;6.82;;
51764;SDS011;37835;53.256;6.456;2023-04-24T06:34:25;9.35;;;6.57;;
51764;SDS011;37835;53.256;6.456;2023-04-24T06:36:56;7.95;;;5.22;;
51764;SDS011;37835;53.256;6.456;2023-04-24T06:39:21;8.07;;;5.20;;
51764;SDS011;37835;53.256;6.456;2023-04-24T06:41:47;9.35;;;4.05;;
51764;SDS011;37835;53.256;6.456;2023-04-24T06:44:12;8.95;;;3.40;;
51764;SDS011;37835;53.256;6.456;2023-04-24T06:46:39;4.45;;;2.50;;
51764;SDS011;37835;53.256;6.456;2023-04-24T06:49:06;6.47;;;2.72;;
51764;SDS011;37835;53.256;6.456;2023-04-24T06:51:31;3.65;;;2.33;;
51764;SDS011;37835;53.256;6.456;2023-04-24T06:53:58;4.35;;;2.33;;
51764;SDS011;37835;53.256;6.456;2023-04-24T06:56:23;4.47;;;2.60;;
51764;SDS011;37835;53.256;6.456;2023-04-24T06:58:50;3.95;;;2.40;;
51764;SDS011;37835;53.256;6.456;2023-04-24T07:01:16;4.90;;;2.22;;
51764;SDS011;37835;53.256;6.456;2023-04-24T07:03:42;2.63;;;2.08;;
51764;SDS011;37835;53.256;6.456;2023-04-24T07:06:07;5.85;;;2.78;;
51764;SDS011;37835;53.256;6.456;2023-04-24T07:08:35;5.88;;;2.58;;
51764;SDS011;37835;53.256;6.456;2023-04-24T07:11:00;8.07;;;3.15;;
51764;SDS011;37835;53.256;6.456;2023-04-24T07:13:26;7.53;;;3.40;;
51764;SDS011;37835;53.256;6.456;2023-04-24T07:15:53;4.78;;;2.70;;
51764;SDS011;37835;53.256;6.456;2023-04-24T07:18:20;3.38;;;2.70;;
51764;SDS011;37835;53.256;6.456;2023-04-24T07:20:46;10.15;;;3.10;;
51764;SDS011;37835;53.256;6.456;2023-04-24T07:23:11;7.70;;;3.22;;
51764;SDS011;37835;53.256;6.456;2023-04-24T07:25:37;7.30;;;4.57;;
51764;SDS011;37835;53.256;6.456;2023-04-24T07:28:03;7.53;;;3.75;;
51764;SDS011;37835;53.256;6.456;2023-04-24T07:30:29;9.80;;;2.80;;
51764;SDS011;37835;53.256;6.456;2023-04-24T07:32:55;5.00;;;2.15;;
51764;SDS011;37835;53.256;6.456;2023-04-24T07:35:21;6.43;;;2.58;;
51764;SDS011;37835;53.256;6.456;2023-04-24T07:37:46;5.53;;;3.38;;
51764;SDS011;37835;53.256;6.456;2023-04-24T07:40:13;10.23;;;3.70;;
51764;SDS011;37835;53.256;6.456;2023-04-24T07:42:38;9.20;;;3.85;;
51764;SDS011;37835;53.256;6.456;2023-04-24T07:45:04;9.48;;;3.83;;
51764;SDS011;37835;53.256;6.456;2023-04-24T07:47:31;8.68;;;5.45;;
51764;SDS011;37835;53.256;6.456;2023-04-24T07:49:57;12.82;;;6.93;;
51764;SDS011;37835;53.256;6.456;2023-04-24T07:52:23;15.13;;;8.13;;
51764;SDS011;37835;53.256;6.456;2023-04-24T07:54:49;13.32;;;8.52;;
51764;SDS011;37835;53.256;6.456;2023-04-24T07:57:15;12.98;;;9.02;;
51764;SDS011;37835;53.256;6.456;2023-04-24T07:59:41;16.80;;;11.73;;
51764;SDS011;37835;53.256;6.456;2023-04-24T08:02:07;29.35;;;15.23;;
51764;SDS011;37835;53.256;6.456;2023-04-24T08:04:33;31.02;;;15.23;;
51764;SDS011;37835;53.256;6.456;2023-04-24T08:06:58;33.00;;;16.88;;
51764;SDS011;37835;53.256;6.456;2023-04-24T08:09:24;25.30;;;15.50;;
51764;SDS011;37835;53.256;6.456;2023-04-24T08:11:50;26.83;;;15.85;;
51764;SDS011;37835;53.256;6.456;2023-04-24T08:14:15;30.77;;;16.80;;
51764;SDS011;37835;53.256;6.456;2023-04-24T08:16:41;28.88;;;17.08;;
51764;SDS011;37835;53.256;6.456;2023-04-24T08:19:07;30.30;;;17.45;;
51764;SDS011;37835;53.256;6.456;2023-04-24T08:21:33;29.63;;;17.42;;
51764;SDS011;37835;53.256;6.456;2023-04-24T08:23:58;26.02;;;16.25;;
51764;SDS011;37835;53.256;6.456;2023-04-24T08:26:24;27.13;;;16.00;;
51764;SDS011;37835;53.256;6.456;2023-04-24T08:28:49;26.85;;;15.07;;
51764;SDS011;37835;53.256;6.456;2023-04-24T08:31:15;30.42;;;15.13;;
51764;SDS011;37835;53.256;6.456;2023-04-24T08:33:44;20.90;;;13.55;;
51764;SDS011;37835;53.256;6.456;2023-04-24T08:36:10;20.67;;;13.07;;
51764;SDS011;37835;53.256;6.456;2023-04-24T08:38:36;24.85;;;13.65;;
51764;SDS011;37835;53.256;6.456;2023-04-24T08:41:02;26.85;;;14.05;;
51764;SDS011;37835;53.256;6.456;2023-04-24T08:43:29;23.17;;;12.57;;
51764;SDS011;37835;53.256;6.456;2023-04-24T08:45:56;24.70;;;13.35;;
51764;SDS011;37835;53.256;6.456;2023-04-24T08:48:25;25.13;;;13.52;;
51764;SDS011;37835;53.256;6.456;2023-04-24T08:50:52;19.42;;;11.80;;
51764;SDS011;37835;53.256;6.456;2023-04-24T08:53:18;21.83;;;11.07;;
51764;SDS011;37835;53.256;6.456;2023-04-24T08:55:46;23.20;;;13.90;;
51764;SDS011;37835;53.256;6.456;2023-04-24T08:58:13;22.48;;;13.35;;
51764;SDS011;37835;53.256;6.456;2023-04-24T09:00:40;27.25;;;13.93;;
51764;SDS011;37835;53.256;6.456;2023-04-24T09:03:11;19.38;;;12.35;;
51764;SDS011;37835;53.256;6.456;2023-04-24T09:05:41;21.98;;;13.20;;
51764;SDS011;37835;53.256;6.456;2023-04-24T09:08:10;25.00;;;12.50;;
51764;SDS011;37835;53.256;6.456;2023-04-24T09:10:38;19.40;;;10.75;;
51764;SDS011;37835;53.256;6.456;2023-04-24T09:13:04;21.65;;;10.02;;
51764;SDS011;37835;53.256;6.456;2023-04-24T09:15:31;17.88;;;10.20;;
51764;SDS011;37835;53.256;6.456;2023-04-24T09:17:57;13.73;;;8.88;;
51764;SDS011;37835;53.256;6.456;2023-04-24T09:20:23;14.55;;;8.50;;
51764;SDS011;37835;53.256;6.456;2023-04-24T09:22:49;12.18;;;8.68;;
51764;SDS011;37835;53.256;6.456;2023-04-24T09:25:20;15.60;;;9.03;;
51764;SDS011;37835;53.256;6.456;2023-04-24T09:27:46;16.20;;;8.68;;
51764;SDS011;37835;53.256;6.456;2023-04-24T09:30:12;15.70;;;8.30;;
51764;SDS011;37835;53.256;6.456;2023-04-24T09:32:38;16.85;;;9.23;;
51764;SDS011;37835;53.256;6.456;2023-04-24T09:35:07;22.30;;;8.68;;
51764;SDS011;37835;53.256;6.456;2023-04-24T09:37:35;22.90;;;8.98;;
51764;SDS011;37835;53.256;6.456;2023-04-24T09:42:46;23.92;;;7.55;;
51764;SDS011;37835;53.256;6.456;2023-04-24T09:45:20;17.67;;;5.93;;
51764;SDS011;37835;53.256;6.456;2023-04-24T09:47:45;22.73;;;6.60;;
51764;SDS011;37835;53.256;6.456;2023-04-24T09:50:16;13.13;;;6.40;;
51764;SDS011;37835;53.256;6.456;2023-04-24T09:52:43;14.75;;;5.00;;
51764;SDS011;37835;53.256;6.456;2023-04-24T09:55:10;10.20;;;5.70;;
51764;SDS011;37835;53.256;6.456;2023-04-24T09:57:46;8.68;;;5.38;;
51764;SDS011;37835;53.256;6.456;2023-04-24T10:00:13;9.25;;;4.80;;
51764;SDS011;37835;53.256;6.456;2023-04-24T10:02:42;12.90;;;4.95;;
51764;SDS011;37835;53.256;6.456;2023-04-24T10:05:14;10.40;;;4.35;;
51764;SDS011;37835;53.256;6.456;2023-04-24T10:07:40;8.13;;;3.42;;
51764;SDS011;37835;53.256;6.456;2023-04-24T10:10:06;10.75;;;3.55;;
51764;SDS011;37835;53.256;6.456;2023-04-24T10:12:35;13.07;;;4.25;;
51764;SDS011;37835;53.256;6.456;2023-04-24T10:15:01;11.70;;;4.32;;
51764;SDS011;37835;53.256;6.456;2023-04-24T10:17:28;9.82;;;4.07;;
51764;SDS011;37835;53.256;6.456;2023-04-24T10:19:54;7.72;;;3.85;;
51764;SDS011;37835;53.256;6.456;2023-04-24T10:22:20;11.27;;;4.45;;
51764;SDS011;37835;53.256;6.456;2023-04-24T10:24:47;7.40;;;3.30;;
51764;SDS011;37835;53.256;6.456;2023-04-24T10:27:15;12.38;;;3.53;;
51764;SDS011;37835;53.256;6.456;2023-04-24T10:29:41;8.00;;;3.10;;
51764;SDS011;37835;53.256;6.456;2023-04-24T10:32:09;8.80;;;3.35;;
51764;SDS011;37835;53.256;6.456;2023-04-24T10:34:36;9.25;;;3.05;;
51764;SDS011;37835;53.256;6.456;2023-04-24T10:37:02;9.82;;;3.50;;
51764;SDS011;37835;53.256;6.456;2023-04-24T10:39:28;9.77;;;3.00;;
51764;SDS011;37835;53.256;6.456;2023-04-24T10:41:55;12.32;;;3.50;;
51764;SDS011;37835;53.256;6.456;2023-04-24T10:44:22;12.60;;;3.90;;
51764;SDS011;37835;53.256;6.456;2023-04-24T10:46:53;8.57;;;2.67;;
51764;SDS011;37835;53.256;6.456;2023-04-24T10:49:30;12.25;;;3.15;;
51764;SDS011;37835;53.256;6.456;2023-04-24T10:52:00;9.80;;;3.33;;
51764;SDS011;37835;53.256;6.456;2023-04-24T10:57:25;4.90;;;2.70;;
51764;SDS011;37835;53.256;6.456;2023-04-24T11:02:45;11.88;;;3.17;;
51764;SDS011;37835;53.256;6.456;2023-04-24T11:05:15;7.63;;;2.40;;
51764;SDS011;37835;53.256;6.456;2023-04-24T11:10:44;7.15;;;2.35;;
51764;SDS011;37835;53.256;6.456;2023-04-24T11:13:13;10.10;;;3.17;;
51764;SDS011;37835;53.256;6.456;2023-04-24T11:15:43;7.20;;;2.17;;
51764;SDS011;37835;53.256;6.456;2023-04-24T11:18:13;10.55;;;2.63;;
51764;SDS011;37835;53.256;6.456;2023-04-24T11:20:44;8.75;;;2.10;;
51764;SDS011;37835;53.256;6.456;2023-04-24T11:23:11;10.25;;;1.90;;
51764;SDS011;37835;53.256;6.456;2023-04-24T11:25:38;6.78;;;2.38;;
51764;SDS011;37835;53.256;6.456;2023-04-24T11:28:04;9.55;;;2.05;;
51764;SDS011;37835;53.256;6.456;2023-04-24T11:30:31;15.57;;;2.78;;
51764;SDS011;37835;53.256;6.456;2023-04-24T11:33:07;11.38;;;2.28;;
51764;SDS011;37835;53.256;6.456;2023-04-24T11:35:39;9.02;;;1.85;;
51764;SDS011;37835;53.256;6.456;2023-04-24T11:38:05;6.57;;;1.80;;
51764;SDS011;37835;53.256;6.456;2023-04-24T11:40:32;7.82;;;1.90;;
51764;SDS011;37835;53.256;6.456;2023-04-24T11:42:59;7.82;;;2.00;;
51764;SDS011;37835;53.256;6.456;2023-04-24T11:45:26;7.05;;;1.52;;
51764;SDS011;37835;53.256;6.456;2023-04-24T11:47:53;7.22;;;1.77;;
51764;SDS011;37835;53.256;6.456;2023-04-24T11:50:20;10.48;;;1.90;;
51764;SDS011;37835;53.256;6.456;2023-04-24T11:52:47;9.32;;;1.70;;
51764;SDS011;37835;53.256;6.456;2023-04-24T11:57:46;13.77;;;2.15;;
51764;SDS011;37835;53.256;6.456;2023-04-24T12:00:20;8.93;;;1.75;;
51764;SDS011;37835;53.256;6.456;2023-04-24T12:05:30;8.60;;;1.50;;
51764;SDS011;37835;53.256;6.456;2023-04-24T12:07:56;9.27;;;1.63;;
51764;SDS011;37835;53.256;6.456;2023-04-24T12:10:23;5.68;;;1.38;;
51764;SDS011;37835;53.256;6.456;2023-04-24T12:12:49;8.05;;;1.13;;
51764;SDS011;37835;53.256;6.456;2023-04-24T12:15:16;7.65;;;1.27;;
51764;SDS011;37835;53.256;6.456;2023-04-24T12:17:43;5.80;;;1.63;;
51764;SDS011;37835;53.256;6.456;2023-04-24T12:20:09;6.47;;;1.35;;
51764;SDS011;37835;53.256;6.456;2023-04-24T12:22:55;3.47;;;0.98;;
51764;SDS011;37835;53.256;6.456;2023-04-24T12:25:23;8.07;;;1.33;;
51764;SDS011;37835;53.256;6.456;2023-04-24T12:30:28;3.08;;;1.00;;
51764;SDS011;37835;53.256;6.456;2023-04-24T12:32:56;4.15;;;1.20;;
51764;SDS011;37835;53.256;6.456;2023-04-24T12:35:23;6.80;;;1.70;;
51764;SDS011;37835;53.256;6.456;2023-04-24T12:37:50;6.40;;;0.98;;
51764;SDS011;37835;53.256;6.456;2023-04-24T12:40:17;2.58;;;0.82;;
51764;SDS011;37835;53.256;6.456;2023-04-24T12:42:44;5.30;;;0.93;;
51764;SDS011;37835;53.256;6.456;2023-04-24T12:45:15;2.13;;;0.75;;
51764;SDS011;37835;53.256;6.456;2023-04-24T12:47:41;11.45;;;1.00;;
51764;SDS011;37835;53.256;6.456;2023-04-24T12:50:09;4.90;;;1.20;;
51764;SDS011;37835;53.256;6.456;2023-04-24T12:52:39;4.68;;;0.98;;
51764;SDS011;37835;53.256;6.456;2023-04-24T12:55:05;2.13;;;0.77;;
51764;SDS011;37835;53.256;6.456;2023-04-24T12:57:33;7.22;;;1.48;;
51764;SDS011;37835;53.256;6.456;2023-04-24T12:59:59;4.70;;;0.88;;
51764;SDS011;37835;53.256;6.456;2023-04-24T13:02:26;7.25;;;0.90;;
51764;SDS011;37835;53.256;6.456;2023-04-24T13:04:54;9.05;;;1.20;;
51764;SDS011;37835;53.256;6.456;2023-04-24T13:07:20;7.70;;;1.20;;
51764;SDS011;37835;53.256;6.456;2023-04-24T13:09:48;6.03;;;0.75;;
51764;SDS011;37835;53.256;6.456;2023-04-24T13:12:14;4.03;;;0.70;;
51764;SDS011;37835;53.256;6.456;2023-04-24T13:14:40;5.38;;;1.13;;
51764;SDS011;37835;53.256;6.456;2023-04-24T13:17:06;6.65;;;1.00;;
51764;SDS011;37835;53.256;6.456;2023-04-24T13:19:36;7.57;;;1.05;;
51764;SDS011;37835;53.256;6.456;2023-04-24T13:22:03;5.45;;;1.17;;
51764;SDS011;37835;53.256;6.456;2023-04-24T13:24:29;8.55;;;0.98;;
51764;SDS011;37835;53.256;6.456;2023-04-24T13:26:56;2.90;;;0.77;;
51764;SDS011;37835;53.256;6.456;2023-04-24T13:29:22;7.07;;;1.08;;
51764;SDS011;37835;53.256;6.456;2023-04-24T13:31:49;2.85;;;0.70;;
51764;SDS011;37835;53.256;6.456;2023-04-24T13:34:15;4.68;;;0.73;;
51764;SDS011;37835;53.256;6.456;2023-04-24T13:36:41;3.22;;;0.60;;
51764;SDS011;37835;53.256;6.456;2023-04-24T13:39:07;5.13;;;0.68;;
51764;SDS011;37835;53.256;6.456;2023-04-24T13:41:33;2.53;;;0.88;;
51764;SDS011;37835;53.256;6.456;2023-04-24T13:43:59;6.07;;;0.50;;
51764;SDS011;37835;53.256;6.456;2023-04-24T13:46:25;3.00;;;0.80;;
51764;SDS011;37835;53.256;6.456;2023-04-24T13:48:50;6.82;;;0.82;;
51764;SDS011;37835;53.256;6.456;2023-04-24T13:51:17;4.20;;;0.90;;
51764;SDS011;37835;53.256;6.456;2023-04-24T13:53:43;7.00;;;1.65;;
51764;SDS011;37835;53.256;6.456;2023-04-24T13:56:08;8.48;;;1.40;;
51764;SDS011;37835;53.256;6.456;2023-04-24T13:58:34;8.77;;;1.30;;
51764;SDS011;37835;53.256;6.456;2023-04-24T14:01:03;9.57;;;1.67;;
51764;SDS011;37835;53.256;6.456;2023-04-24T14:03:29;7.03;;;2.00;;
51764;SDS011;37835;53.256;6.456;2023-04-24T14:05:55;11.25;;;1.77;;
51764;SDS011;37835;53.256;6.456;2023-04-24T14:08:20;7.90;;;2.20;;
51764;SDS011;37835;53.256;6.456;2023-04-24T14:10:46;10.82;;;3.40;;
51764;SDS011;37835;53.256;6.456;2023-04-24T14:13:12;9.85;;;2.08;;
51764;SDS011;37835;53.256;6.456;2023-04-24T14:15:38;11.32;;;2.10;;
51764;SDS011;37835;53.256;6.456;2023-04-24T14:18:04;9.88;;;1.83;;
51764;SDS011;37835;53.256;6.456;2023-04-24T14:20:30;9.27;;;2.20;;
51764;SDS011;37835;53.256;6.456;2023-04-24T14:22:55;7.78;;;2.08;;
51764;SDS011;37835;53.256;6.456;2023-04-24T14:25:24;8.65;;;2.65;;
51764;SDS011;37835;53.256;6.456;2023-04-24T14:27:50;10.02;;;2.45;;
51764;SDS011;37835;53.256;6.456;2023-04-24T14:30:15;13.85;;;2.45;;
51764;SDS011;37835;53.256;6.456;2023-04-24T14:32:41;8.90;;;2.08;;
51764;SDS011;37835;53.256;6.456;2023-04-24T14:35:07;10.52;;;2.67;;
51764;SDS011;37835;53.256;6.456;2023-04-24T14:37:33;9.77;;;2.50;;
51764;SDS011;37835;53.256;6.456;2023-04-24T14:39:58;11.05;;;2.20;;
51764;SDS011;37835;53.256;6.456;2023-04-24T14:42:24;11.80;;;2.53;;
51764;SDS011;37835;53.256;6.456;2023-04-24T14:44:50;8.60;;;2.45;;
51764;SDS011;37835;53.256;6.456;2023-04-24T14:47:16;11.15;;;3.08;;
51764;SDS011;37835;53.256;6.456;2023-04-24T14:49:46;11.70;;;3.03;;
51764;SDS011;37835;53.256;6.456;2023-04-24T14:52:13;11.75;;;2.70;;
51764;SDS011;37835;53.256;6.456;2023-04-24T14:54:39;11.23;;;3.47;;
51764;SDS011;37835;53.256;6.456;2023-04-24T14:57:05;9.32;;;2.65;;